Time;durP1;ratioP1;P1;durP2;ratioP2;P2;SDS_P1;SDS_P2;PMS_P1;PMS_P2;Temp;Humidity;BMP_temperature;BMP_pressure;BME280_temperature;BME280_humidity;BME280_pressure;Samples;Min_cycle;Max_cycle;Signal;HPM_P1;HPM_P2
2022/11/12 00:04:09;;;;;;;6.03;3.87;;;10.70;46.90;;;;;;10386376;28;20232;-69
2022/11/12 00:09:12;;;;;;;3.87;3.57;;;10.70;47.10;;;;;;10387237;28;20221;-69
2022/11/12 00:14:15;;;;;;;16.17;3.80;;;10.70;47.00;;;;;;10382006;28;20233;-69
2022/11/12 00:19:19;;;;;;;17.73;3.93;;;10.70;47.00;;;;;;10385255;28;20807;-69
2022/11/12 00:24:23;;;;;;;3.20;3.00;;;10.70;47.00;;;;;;10385238;28;20237;-69
2022/11/12 00:29:26;;;;;;;25.20;3.83;;;10.70;46.70;;;;;;10382290;28;20706;-69
2022/11/12 00:34:30;;;;;;;3.67;3.13;;;10.60;46.60;;;;;;10384786;28;20703;-69
2022/11/12 00:39:34;;;;;;;9.20;3.53;;;10.60;46.80;;;;;;10382720;28;20265;-69
2022/11/12 00:44:37;;;;;;;39.23;3.73;;;10.60;47.50;;;;;;10383803;28;20236;-69
2022/11/12 00:49:41;;;;;;;4.07;3.23;;;10.60;46.90;;;;;;10388212;28;20222;-72
2022/11/12 00:54:44;;;;;;;26.03;3.70;;;10.50;46.60;;;;;;10382465;28;20237;-72
2022/11/12 00:59:48;;;;;;;46.83;4.43;;;10.50;46.60;;;;;;10384961;28;20233;-71
2022/11/12 01:04:52;;;;;;;12.17;3.90;;;10.40;46.30;;;;;;10383771;28;20237;-75
2022/11/12 01:09:55;;;;;;;6.83;3.27;;;10.40;46.70;;;;;;10383287;28;20645;-75
2022/11/12 01:14:59;;;;;;;16.30;3.80;;;10.40;46.80;;;;;;10385721;28;20230;-75
2022/11/12 01:20:03;;;;;;;12.13;3.90;;;10.30;46.60;;;;;;10378295;28;20225;-74
2022/11/12 01:25:07;;;;;;;4.37;3.60;;;10.30;46.90;;;;;;10384926;28;20233;-75
2022/11/12 01:30:11;;;;;;;3.80;3.50;;;10.40;47.20;;;;;;10376156;28;20225;-75
2022/11/12 01:35:16;;;;;;;17.60;4.13;;;10.40;47.30;;;;;;10383786;28;20218;-75
2022/11/12 01:40:19;;;;;;;3.60;3.30;;;10.40;47.40;;;;;;10380778;28;20222;-75
2022/11/12 01:45:22;;;;;;;9.47;3.90;;;10.40;47.30;;;;;;10379650;28;20234;-75
2022/11/12 01:50:31;;;;;;;4.20;3.90;;;10.40;47.20;;;;;;10379616;28;20229;-75
2022/11/12 01:55:37;;;;;;;16.27;3.90;;;10.50;47.30;;;;;;10381416;28;20229;-75
2022/11/12 02:00:41;;;;;;;9.57;4.13;;;10.50;47.00;;;;;;10375043;28;20222;-75
2022/11/12 02:05:47;;;;;;;19.67;3.93;;;10.50;47.10;;;;;;10375717;28;20616;-75
2022/11/12 02:10:51;;;;;;;4.07;3.67;;;10.50;46.90;;;;;;10381153;28;20717;-75
2022/11/12 02:15:55;;;;;;;4.50;4.20;;;10.50;46.90;;;;;;10379468;28;20234;-71
2022/11/12 02:21:05;;;;;;;4.10;3.80;;;10.40;46.80;;;;;;10379407;28;20236;-71
2022/11/12 02:26:10;;;;;;;8.03;3.77;;;10.40;47.00;;;;;;10374660;28;20217;-71
2022/11/12 02:31:13;;;;;;;3.87;3.57;;;10.50;46.80;;;;;;10378392;28;20219;-71
2022/11/12 02:36:16;;;;;;;3.30;3.10;;;10.40;46.20;;;;;;10375637;28;20241;-71
2022/11/12 02:41:21;;;;;;;4.60;4.03;;;10.40;47.00;;;;;;10383132;28;20232;-69
2022/11/12 02:46:24;;;;;;;3.40;3.20;;;10.40;46.20;;;;;;10380970;28;20230;-69
2022/11/12 02:51:27;;;;;;;3.93;3.63;;;10.30;46.30;;;;;;10385310;28;20714;-71
2022/11/12 02:56:32;;;;;;;7.87;3.33;;;10.30;46.50;;;;;;10385847;28;20229;-71
2022/11/12 03:01:35;;;;;;;3.20;3.00;;;10.30;46.40;;;;;;10385264;28;20277;-71
2022/11/12 03:06:38;;;;;;;13.60;3.83;;;10.30;46.20;;;;;;10384999;28;21117;-71
2022/11/12 03:11:43;;;;;;;6.53;3.57;;;10.30;46.20;;;;;;10383874;28;20245;-71
2022/11/12 03:16:46;;;;;;;4.47;3.17;;;10.20;46.10;;;;;;10392191;28;20745;-71
2022/11/12 03:21:49;;;;;;;27.90;4.30;;;10.20;46.40;;;;;;10385678;28;20880;-71
2022/11/12 03:26:53;;;;;;;3.73;3.53;;;10.10;47.00;;;;;;10387337;28;20711;-71
2022/11/12 03:31:56;;;;;;;6.17;3.67;;;10.10;46.50;;;;;;10391033;28;20229;-71
2022/11/12 03:36:59;;;;;;;7.10;3.70;;;10.10;46.70;;;;;;10381492;28;20225;-71
2022/11/12 03:42:04;;;;;;;4.17;3.37;;;10.10;46.70;;;;;;10385656;28;20218;-74
2022/11/12 03:47:07;;;;;;;39.07;4.33;;;10.10;46.80;;;;;;10385326;28;20232;-75
2022/11/12 03:52:10;;;;;;;6.83;4.10;;;10.10;46.50;;;;;;10385411;28;20215;-76
2022/11/12 03:57:15;;;;;;;15.63;4.00;;;10.00;46.30;;;;;;10388626;28;20230;-75
2022/11/12 04:02:18;;;;;;;7.10;3.60;;;10.00;46.50;;;;;;10381666;28;20227;-75
2022/11/12 04:23:27;;;;;;;3.83;3.63;;;10.00;46.60;;;;;;10387600;28;20221;-69
2022/11/12 04:28:32;;;;;;;3.90;3.60;;;10.00;46.70;;;;;;10392036;28;20225;-69
2022/11/12 04:33:35;;;;;;;3.70;3.50;;;10.00;46.80;;;;;;10383019;28;20233;-69
2022/11/12 04:38:38;;;;;;;3.47;3.27;;;10.00;46.80;;;;;;10383450;28;20222;-71
2022/11/12 04:49:03;;;;;;;10.53;3.90;;;10.00;46.80;;;;;;10389314;28;20737;-69
2022/11/12 04:54:06;;;;;;;36.10;3.97;;;10.00;46.50;;;;;;10377886;28;20242;-69
2022/11/12 04:59:11;;;;;;;28.77;4.03;;;10.00;46.10;;;;;;10379539;28;20229;-71
2022/11/12 05:04:14;;;;;;;43.67;4.00;;;10.00;45.90;;;;;;10390100;28;20230;-71
2022/11/12 05:09:17;;;;;;;5.33;3.57;;;9.90;46.70;;;;;;10382695;28;20233;-71
2022/11/12 05:14:22;;;;;;;8.30;3.40;;;9.70;46.70;;;;;;10379581;28;20241;-71
2022/11/12 05:19:25;;;;;;;21.03;3.23;;;9.70;47.00;;;;;;10380021;28;20225;-71
2022/11/12 05:24:29;;;;;;;14.67;3.70;;;9.60;46.90;;;;;;10377052;28;20248;-71
2022/11/12 05:29:46;;;;;;;3.67;3.37;;;9.60;47.00;;;;;;10381378;28;20222;-71
2022/11/12 05:34:49;;;;;;;9.37;3.00;;;9.50;47.50;;;;;;10388917;28;20229;-71
2022/11/12 05:39:52;;;;;;;5.23;2.83;;;9.50;47.50;;;;;;10381423;28;20713;-71
2022/11/12 05:44:56;;;;;;;16.70;2.87;;;9.50;47.70;;;;;;10385445;28;20226;-71
2022/11/12 05:50:00;;;;;;;2.97;2.77;;;9.50;47.40;;;;;;10380437;28;20245;-70
2022/11/12 05:55:03;;;;;;;10.77;3.00;;;9.50;47.20;;;;;;10377508;28;20218;-71
2022/11/12 06:00:09;;;;;;;15.03;2.97;;;9.50;47.30;;;;;;10384864;28;20221;-71
2022/11/12 06:05:12;;;;;;;3.37;3.10;;;9.50;47.40;;;;;;10384939;28;20244;-71
2022/11/12 06:10:16;;;;;;;3.20;3.00;;;9.50;47.30;;;;;;10380135;28;20312;-71
2022/11/12 06:15:25;;;;;;;3.60;3.40;;;9.40;47.40;;;;;;10386926;28;20228;-71
2022/11/12 06:20:29;;;;;;;3.53;3.30;;;9.40;47.70;;;;;;10375986;28;20225;-71
2022/11/12 06:25:32;;;;;;;3.33;3.13;;;9.50;47.70;;;;;;10386326;28;20233;-71
2022/11/12 06:30:36;;;;;;;17.03;3.20;;;9.50;47.80;;;;;;10387788;28;20226;-71
2022/11/12 06:35:39;;;;;;;8.40;2.80;;;9.50;47.60;;;;;;10383703;28;20240;-70
2022/11/12 06:40:45;;;;;;;4.30;3.67;;;9.50;47.30;;;;;;10386520;28;20313;-71
2022/11/12 06:45:49;;;;;;;3.23;3.03;;;9.50;47.30;;;;;;10390949;28;20232;-71
2022/11/12 06:50:52;;;;;;;2.93;2.73;;;9.50;47.30;;;;;;10383524;28;20606;-68
2022/11/12 06:56:01;;;;;;;3.03;2.83;;;9.50;47.40;;;;;;10387686;28;20277;-68
2022/11/12 07:01:11;;;;;;;12.03;2.90;;;9.50;47.70;;;;;;10387390;28;20245;-68
2022/11/12 07:06:17;;;;;;;5.77;3.00;;;9.50;47.60;;;;;;10387770;28;20278;-68
2022/11/12 07:11:21;;;;;;;8.00;2.80;;;9.50;47.50;;;;;;10390056;28;20265;-68
2022/11/12 07:16:26;;;;;;;3.57;2.80;;;9.50;47.50;;;;;;10385750;28;20801;-68
2022/11/12 07:21:29;;;;;;;13.50;3.07;;;9.40;47.30;;;;;;10387654;28;20233;-69
2022/11/12 07:26:32;;;;;;;6.10;2.47;;;9.40;47.30;;;;;;10386307;28;20705;-70
2022/11/12 07:31:36;;;;;;;33.20;3.23;;;9.40;47.40;;;;;;10386916;28;20230;-70
2022/11/12 07:36:39;;;;;;;3.90;3.50;;;9.30;47.40;;;;;;10380626;28;20883;-70
2022/11/12 07:41:43;;;;;;;4.00;3.70;;;9.30;47.70;;;;;;10393555;28;20221;-71
2022/11/12 07:46:47;;;;;;;10.07;3.70;;;9.30;48.00;;;;;;10382878;28;20230;-68
2022/11/12 07:51:50;;;;;;;44.63;3.97;;;9.30;48.10;;;;;;10384240;28;20240;-69
2022/11/12 07:56:53;;;;;;;4.40;3.43;;;9.30;47.70;;;;;;10378066;28;20225;-71
2022/11/12 08:01:58;;;;;;;2.50;2.30;;;9.30;47.50;;;;;;10384021;28;20233;-71
2022/11/12 08:07:01;;;;;;;11.17;2.73;;;9.20;47.50;;;;;;10379050;28;20703;-75
2022/11/12 08:12:05;;;;;;;16.40;3.40;;;9.20;47.50;;;;;;10379057;28;20829;-75
2022/11/12 08:17:10;;;;;;;7.57;3.40;;;9.20;47.50;;;;;;10384770;28;20222;-71
2022/11/12 08:22:14;;;;;;;11.33;3.33;;;9.10;47.70;;;;;;10380251;28;20225;-70
2022/11/12 08:27:17;;;;;;;23.30;3.47;;;9.10;48.10;;;;;;10382354;28;20225;-70
2022/11/12 08:32:21;;;;;;;10.90;2.77;;;9.10;48.00;;;;;;10384198;28;20231;-70
2022/11/12 08:37:25;;;;;;;2.93;2.73;;;9.10;47.90;;;;;;10380824;28;20221;-72
2022/11/12 08:42:28;;;;;;;2.60;2.40;;;9.10;48.00;;;;;;10383412;28;20229;-70
2022/11/12 08:47:32;;;;;;;10.13;3.20;;;9.20;48.20;;;;;;10387408;28;20307;-70
2022/11/12 08:52:35;;;;;;;8.60;3.27;;;9.20;48.40;;;;;;10380304;28;20260;-69
2022/11/12 08:57:42;;;;;;;5.13;3.40;;;9.30;48.20;;;;;;10378955;28;20230;-70
2022/11/12 09:02:47;;;;;;;10.00;3.67;;;9.30;48.20;;;;;;10378945;28;20311;-71
2022/11/12 09:07:57;;;;;;;3.60;3.30;;;9.30;48.30;;;;;;10381933;28;20223;-71
2022/11/12 09:13:01;;;;;;;6.00;3.13;;;9.40;48.90;;;;;;10382328;28;20229;-69
2022/11/12 09:18:08;;;;;;;2.80;2.60;;;9.40;48.60;;;;;;10382862;28;20776;-68
2022/11/12 09:23:13;;;;;;;2.90;2.70;;;9.50;49.40;;;;;;10374442;28;20229;-68
2022/11/12 09:28:17;;;;;;;2.63;2.53;;;9.60;48.70;;;;;;10377106;28;20616;-68
2022/11/12 09:33:25;;;;;;;12.40;3.40;;;9.60;48.50;;;;;;10374576;28;20240;-68
2022/11/12 09:38:28;;;;;;;4.37;3.00;;;9.70;48.20;;;;;;10381511;28;20225;-70
2022/11/12 09:43:37;;;;;;;9.73;3.50;;;9.70;48.00;;;;;;10381354;28;20709;-75
2022/11/12 09:48:47;;;;;;;3.53;3.33;;;9.70;48.40;;;;;;10378289;28;20246;-74
2022/11/12 09:53:55;;;;;;;3.53;3.33;;;9.70;48.70;;;;;;10375299;28;20884;-74
2022/11/12 09:58:59;;;;;;;4.00;3.70;;;9.70;48.70;;;;;;10374034;28;20588;-74
2022/11/12 10:04:29;;;;;;;4.10;3.47;;;9.70;48.70;;;;;;10366475;28;20771;-75
2022/11/12 10:09:38;;;;;;;6.60;3.93;;;9.80;48.90;;;;;;10368879;28;20606;-74
2022/11/12 10:14:54;;;;;;;6.70;4.17;;;9.90;48.90;;;;;;10369008;28;20317;-74
2022/11/12 10:20:09;;;;;;;14.63;4.17;;;9.90;49.10;;;;;;10367498;28;20229;-74
2022/11/12 10:25:15;;;;;;;4.33;3.77;;;10.00;47.70;;;;;;10361057;28;20230;-75
2022/11/12 10:30:20;;;;;;;7.40;4.27;;;10.00;47.70;;;;;;10370281;28;20757;-72
2022/11/12 10:35:25;;;;;;;16.10;4.80;;;10.00;47.80;;;;;;10371908;28;20233;-77
2022/11/12 10:40:33;;;;;;;11.93;5.30;;;10.00;48.00;;;;;;10379061;28;20229;-75
2022/11/12 10:45:36;;;;;;;5.77;5.03;;;10.00;48.20;;;;;;10377502;28;20857;-75
2022/11/12 10:50:42;;;;;;;8.43;5.70;;;10.10;48.10;;;;;;10377478;28;20221;-75
2022/11/12 10:55:55;;;;;;;9.40;5.50;;;10.10;48.30;;;;;;10374860;28;20223;-75
2022/11/12 11:01:01;;;;;;;7.87;5.80;;;10.10;48.40;;;;;;10370553;28;20226;-74
2022/11/12 11:06:17;;;;;;;6.70;6.10;;;10.20;48.50;;;;;;10365116;28;20277;-68
2022/11/12 11:11:24;;;;;;;6.43;5.90;;;10.30;48.50;;;;;;10374568;28;20710;-68
2022/11/12 11:16:29;;;;;;;6.87;6.27;;;10.30;48.40;;;;;;10375792;28;20234;-67
2022/11/12 11:21:52;;;;;;;6.90;6.40;;;10.30;48.30;;;;;;10377331;28;20234;-68
2022/11/12 11:27:02;;;;;;;8.70;7.80;;;10.40;48.70;;;;;;10382418;28;20711;-67
2022/11/12 11:32:16;;;;;;;8.97;8.00;;;10.50;48.50;;;;;;10382329;28;20245;-68
2022/11/12 11:37:27;;;;;;;9.43;8.63;;;10.50;48.70;;;;;;10382850;28;20240;-67
2022/11/12 11:42:58;;;;;;;8.60;7.90;;;10.50;48.90;;;;;;10376901;28;20243;-68
2022/11/12 11:48:13;;;;;;;6.00;5.50;;;10.50;48.70;;;;;;10373289;28;20230;-69
2022/11/12 11:53:23;;;;;;;9.03;8.33;;;10.60;51.90;;;;;;10373301;28;20218;-68
2022/11/12 11:59:02;;;;;;;8.53;7.83;;;10.80;51.90;;;;;;10375746;28;20233;-67
2022/11/12 12:04:33;;;;;;;10.60;9.70;;;11.00;50.30;;;;;;10376316;28;20726;-67
2022/11/12 12:09:45;;;;;;;11.27;10.27;;;11.10;49.50;;;;;;10382130;28;20222;-68
2022/11/12 12:14:56;;;;;;;13.47;12.07;;;11.20;49.10;;;;;;10383613;28;20278;-67
2022/11/12 12:20:12;;;;;;;12.83;11.60;;;11.20;48.90;;;;;;10385908;28;20276;-70
2022/11/12 12:25:22;;;;;;;12.13;11.00;;;11.20;48.80;;;;;;10375008;28;20226;-69
2022/11/12 12:30:26;;;;;;;11.00;10.10;;;11.20;49.00;;;;;;10372274;28;20229;-68
2022/11/12 12:35:34;;;;;;;9.70;8.90;;;11.20;48.90;;;;;;10380953;28;20268;-68
2022/11/12 12:40:45;;;;;;;11.07;10.17;;;11.30;49.00;;;;;;10375387;28;20242;-69
2022/11/12 12:45:48;;;;;;;10.70;9.80;;;11.30;48.80;;;;;;10375681;28;20325;-68
2022/11/12 12:50:53;;;;;;;10.67;9.77;;;11.30;48.70;;;;;;10380050;28;20283;-69
2022/11/12 12:56:00;;;;;;;9.07;8.33;;;11.30;48.70;;;;;;10378842;28;20233;-68
2022/11/12 13:01:08;;;;;;;9.47;8.77;;;11.40;49.00;;;;;;10382514;28;20273;-67
2022/11/12 13:06:16;;;;;;;9.17;8.37;;;11.40;48.90;;;;;;10385727;28;20236;-67
2022/11/12 13:17:10;;;;;;;9.27;8.50;;;11.50;49.20;;;;;;10378429;28;20229;-67
2022/11/12 13:22:51;;;;;;;8.87;8.17;;;11.50;49.00;;;;;;10382811;28;20321;-75
2022/11/12 13:28:13;;;;;;;9.00;8.20;;;11.50;49.40;;;;;;10381209;28;21071;-75
2022/11/12 13:33:29;;;;;;;9.97;9.17;;;11.60;49.50;;;;;;10380127;28;20226;-75
2022/11/12 13:38:37;;;;;;;9.03;8.30;;;11.70;49.30;;;;;;10383578;28;20640;-74
2022/11/12 13:43:46;;;;;;;9.43;8.63;;;11.80;49.30;;;;;;10380172;28;20230;-74
2022/11/12 13:48:56;;;;;;;8.03;7.33;;;11.80;49.00;;;;;;10377472;28;20283;-76
2022/11/12 13:54:00;;;;;;;7.93;7.33;;;11.90;50.10;;;;;;10380198;28;20287;-75
2022/11/12 13:59:16;;;;;;;7.80;7.13;;;11.90;49.50;;;;;;10378060;28;20713;-69
2022/11/12 14:04:23;;;;;;;7.10;6.50;;;12.00;49.40;;;;;;10374956;28;20233;-68
2022/11/12 14:09:41;;;;;;;7.17;6.67;;;12.10;49.10;;;;;;10379222;28;20233;-68
2022/11/12 14:15:03;;;;;;;7.67;6.97;;;12.10;49.00;;;;;;10379990;28;20279;-77
2022/11/12 14:20:25;;;;;;;9.80;9.00;;;12.10;48.80;;;;;;10378047;28;20222;-77
2022/11/12 14:25:29;;;;;;;12.20;11.00;;;12.20;48.70;;;;;;10384200;28;20229;-76
2022/11/12 14:30:33;;;;;;;11.10;10.00;;;12.20;48.70;;;;;;10388852;28;20232;-76
2022/11/12 14:35:37;;;;;;;10.10;9.20;;;12.20;48.60;;;;;;10378235;28;20237;-76
2022/11/12 14:40:45;;;;;;;9.60;8.73;;;12.20;48.50;;;;;;10385796;28;20269;-77
2022/11/12 14:45:51;;;;;;;11.63;10.63;;;12.30;48.50;;;;;;10383148;28;20229;-76
2022/11/12 14:50:59;;;;;;;12.63;11.60;;;12.20;49.00;;;;;;10387461;28;20272;-76
2022/11/12 14:56:04;;;;;;;13.73;12.63;;;12.20;48.00;;;;;;10370310;28;20281;-75
2022/11/12 15:01:20;;;;;;;15.47;14.17;;;12.20;47.80;;;;;;10372650;28;20437;-76
2022/11/12 15:06:52;;;;;;;11.90;10.73;;;12.20;48.20;;;;;;10377172;28;20772;-76
2022/11/12 15:11:55;;;;;;;12.83;11.73;;;12.10;48.80;;;;;;10378695;28;20289;-74
2022/11/12 15:17:00;;;;;;;12.47;11.47;;;12.10;48.90;;;;;;10381659;28;20226;-74
2022/11/12 15:22:04;;;;;;;15.53;14.13;;;12.20;48.60;;;;;;10389103;28;20234;-72
2022/11/12 15:27:33;;;;;;;12.13;11.17;;;12.20;48.30;;;;;;10381616;28;20246;-74
2022/11/12 15:32:38;;;;;;;12.87;11.87;;;12.20;48.00;;;;;;10379987;28;20245;-75
2022/11/12 15:37:43;;;;;;;14.10;13.00;;;12.20;47.80;;;;;;10386154;28;20221;-75
2022/11/12 15:42:47;;;;;;;18.27;16.77;;;12.20;47.70;;;;;;10380439;28;20240;-68
2022/11/12 15:47:52;;;;;;;14.80;13.60;;;12.10;47.70;;;;;;10384872;28;20328;-67
2022/11/12 15:52:55;;;;;;;13.87;12.67;;;12.10;47.90;;;;;;10377135;28;20701;-68
2022/11/12 15:57:59;;;;;;;13.17;11.87;;;12.10;47.70;;;;;;10377615;28;20625;-67
2022/11/12 16:03:13;;;;;;;11.90;10.90;;;12.00;47.70;;;;;;10384303;28;20589;-69
2022/11/12 16:08:16;;;;;;;12.20;11.10;;;12.00;48.70;;;;;;10386889;28;20233;-69
2022/11/12 16:13:33;;;;;;;12.20;11.20;;;12.10;48.00;;;;;;10379739;28;20313;-69
2022/11/12 16:18:37;;;;;;;11.93;10.93;;;12.00;47.70;;;;;;10380093;28;20222;-70
2022/11/12 16:23:40;;;;;;;12.10;11.10;;;12.00;47.60;;;;;;10371583;28;20814;-70
2022/11/12 16:28:44;;;;;;;12.77;11.67;;;12.00;47.60;;;;;;10381044;28;20231;-70
2022/11/12 16:33:48;;;;;;;14.63;13.13;;;12.00;47.70;;;;;;10379781;28;20929;-71
2022/11/12 16:38:52;;;;;;;12.87;11.60;;;11.90;47.50;;;;;;10375989;28;20271;-71
2022/11/12 16:43:55;;;;;;;11.97;10.97;;;11.80;47.40;;;;;;10377118;28;20237;-71
2022/11/12 16:48:59;;;;;;;14.57;13.27;;;11.80;47.60;;;;;;10380026;28;20221;-71
2022/11/12 16:54:03;;;;;;;14.27;12.97;;;11.80;47.60;;;;;;10384785;28;20222;-71
2022/11/12 16:59:06;;;;;;;13.67;12.47;;;11.70;47.40;;;;;;10382165;28;20226;-71
2022/11/12 17:04:11;;;;;;;14.53;13.23;;;11.70;47.70;;;;;;10383424;28;20249;-71
2022/11/12 17:09:17;;;;;;;14.27;13.07;;;11.70;47.90;;;;;;10368850;28;20236;-71
2022/11/12 17:14:20;;;;;;;14.43;13.20;;;11.70;47.90;;;;;;10374811;28;20254;-71
2022/11/12 17:19:31;;;;;;;13.90;12.70;;;11.70;47.90;;;;;;10369727;28;20807;-72
2022/11/12 17:24:34;;;;;;;12.57;11.47;;;11.70;47.80;;;;;;10368371;28;20713;-71
2022/11/12 17:29:37;;;;;;;11.77;10.70;;;11.70;47.70;;;;;;10367023;28;20759;-71
2022/11/12 17:34:42;;;;;;;12.03;10.97;;;11.70;47.60;;;;;;10365826;28;20230;-72
2022/11/12 17:39:45;;;;;;;20.73;14.53;;;11.70;47.60;;;;;;10368770;28;20214;-71
2022/11/12 17:44:48;;;;;;;14.70;13.40;;;11.70;47.40;;;;;;10370104;28;20229;-71
2022/11/12 17:49:53;;;;;;;19.73;11.47;;;11.70;47.40;;;;;;10372042;28;20719;-71
2022/11/12 17:54:56;;;;;;;15.30;11.97;;;11.70;47.40;;;;;;10370131;28;20230;-71
2022/11/12 17:59:59;;;;;;;14.73;12.70;;;11.60;47.40;;;;;;10370761;28;20233;-71
2022/11/12 18:05:04;;;;;;;15.67;11.57;;;11.60;47.30;;;;;;10366865;28;20225;-72
2022/11/12 18:10:07;;;;;;;13.80;11.40;;;11.60;47.30;;;;;;10373232;28;20233;-72
2022/11/12 18:15:11;;;;;;;12.40;11.23;;;11.50;47.30;;;;;;10368991;28;20649;-72
2022/11/12 18:20:18;;;;;;;11.37;10.37;;;11.50;47.40;;;;;;10373495;28;20225;-72
2022/11/12 18:25:21;;;;;;;11.70;10.70;;;11.50;47.70;;;;;;10376461;28;20254;-71
2022/11/12 18:30:24;;;;;;;12.73;10.80;;;11.40;47.60;;;;;;10379260;28;20237;-71
2022/11/12 18:35:29;;;;;;;12.00;10.03;;;11.40;47.50;;;;;;10384009;28;20237;-71
2022/11/12 18:40:32;;;;;;;17.13;9.70;;;11.40;47.20;;;;;;10386397;28;20232;-68
2022/11/12 18:45:35;;;;;;;9.87;8.97;;;11.30;47.00;;;;;;10381627;28;20240;-68
2022/11/12 18:50:39;;;;;;;9.77;8.97;;;11.20;47.20;;;;;;10379543;28;20226;-70
2022/11/12 18:55:43;;;;;;;22.00;9.33;;;11.20;47.50;;;;;;10380714;28;20233;-70
2022/11/12 19:00:46;;;;;;;26.50;8.93;;;11.10;47.40;;;;;;10375534;28;20268;-69
2022/11/12 19:05:57;;;;;;;8.20;7.60;;;11.10;47.30;;;;;;10373301;28;20261;-70
2022/11/12 19:11:03;;;;;;;11.57;8.70;;;11.00;47.60;;;;;;10373623;28;20237;-72
2022/11/12 19:16:10;;;;;;;13.23;8.77;;;11.00;47.40;;;;;;10368613;28;20977;-68
2022/11/12 19:21:16;;;;;;;28.23;9.53;;;10.90;47.20;;;;;;10364664;28;20258;-69
2022/11/12 19:26:20;;;;;;;70.23;9.10;;;10.90;47.20;;;;;;10364204;28;20291;-70
2022/11/12 19:31:26;;;;;;;9.20;8.50;;;10.80;47.10;;;;;;10362754;28;20267;-70
2022/11/12 19:36:31;;;;;;;39.47;9.00;;;10.70;47.30;;;;;;10357843;28;20230;-69
2022/11/12 19:41:34;;;;;;;13.53;8.27;;;10.70;47.40;;;;;;10365144;28;20696;-70
2022/11/12 19:46:38;;;;;;;9.43;8.43;;;10.70;47.20;;;;;;10367903;28;20229;-71
2022/11/12 19:51:42;;;;;;;8.90;8.20;;;10.60;47.30;;;;;;10363300;28;20233;-71
2022/11/12 19:56:45;;;;;;;8.80;8.10;;;10.60;47.40;;;;;;10369174;28;20241;-71
2022/11/12 20:01:48;;;;;;;9.93;7.87;;;10.70;47.40;;;;;;10370676;28;20217;-71
2022/11/12 20:06:53;;;;;;;8.80;8.00;;;10.70;47.40;;;;;;10373460;28;20234;-71
2022/11/12 20:11:56;;;;;;;7.17;6.40;;;10.70;47.30;;;;;;10366190;28;20769;-72
2022/11/12 20:16:59;;;;;;;28.93;8.40;;;10.70;47.20;;;;;;10380569;28;20595;-72
2022/11/12 20:22:04;;;;;;;38.63;7.87;;;10.70;47.00;;;;;;10370605;28;20714;-71
2022/11/12 20:27:07;;;;;;;8.47;7.87;;;10.60;46.60;;;;;;10375784;28;20229;-71
2022/11/12 20:32:10;;;;;;;32.93;7.87;;;10.50;46.80;;;;;;10366821;28;20234;-71
2022/11/12 20:37:17;;;;;;;19.77;7.43;;;10.50;47.00;;;;;;10368672;28;20597;-71
2022/11/12 20:42:20;;;;;;;9.10;7.10;;;10.50;47.00;;;;;;10366750;28;20711;-71
2022/11/12 20:47:23;;;;;;;10.43;7.70;;;10.40;47.10;;;;;;10369268;28;20229;-73
2022/11/12 20:52:28;;;;;;;8.70;8.00;;;10.40;47.20;;;;;;10362043;28;20230;-71
2022/11/12 20:57:31;;;;;;;9.07;6.97;;;10.40;47.30;;;;;;10365507;28;20233;-71
2022/11/12 21:02:34;;;;;;;9.90;6.90;;;10.40;47.30;;;;;;10366655;28;20244;-71
2022/11/12 21:07:39;;;;;;;7.13;6.53;;;10.40;46.90;;;;;;10363249;28;20318;-71
2022/11/12 21:12:42;;;;;;;10.17;6.30;;;10.50;46.80;;;;;;10371570;28;20230;-71
2022/11/12 21:17:45;;;;;;;6.87;6.37;;;10.30;46.70;;;;;;10373847;28;20233;-71
2022/11/12 21:22:50;;;;;;;17.53;5.83;;;10.30;46.70;;;;;;10378873;28;20222;-74
2022/11/12 21:27:53;;;;;;;10.50;5.63;;;10.20;46.50;;;;;;10383444;28;20229;-74
2022/11/12 21:32:56;;;;;;;6.70;6.20;;;10.20;46.70;;;;;;10385246;28;20234;-74
2022/11/12 21:38:00;;;;;;;27.37;6.30;;;10.20;46.90;;;;;;10375980;28;20222;-74
2022/11/12 21:43:03;;;;;;;8.77;6.03;;;10.20;46.80;;;;;;10380843;28;20226;-73
2022/11/12 21:48:07;;;;;;;9.13;7.00;;;10.20;46.90;;;;;;10374208;28;20737;-73
2022/11/12 21:53:11;;;;;;;7.73;6.50;;;10.20;46.80;;;;;;10374935;28;21054;-74
2022/11/12 21:58:14;;;;;;;7.67;6.60;;;10.20;46.90;;;;;;10375614;28;20695;-74
2022/11/12 22:03:17;;;;;;;7.27;6.67;;;10.20;46.90;;;;;;10374337;28;20305;-74
2022/11/12 22:08:22;;;;;;;15.17;7.03;;;10.10;46.90;;;;;;10382193;28;20245;-74
2022/11/12 22:13:25;;;;;;;11.63;6.80;;;10.20;46.90;;;;;;10378952;28;20248;-73
2022/11/12 22:18:31;;;;;;;17.53;6.90;;;10.10;46.70;;;;;;10374761;28;20270;-75
2022/11/12 22:23:36;;;;;;;22.73;6.63;;;10.10;46.60;;;;;;10377928;28;20276;-74
2022/11/12 22:28:39;;;;;;;12.53;6.60;;;10.00;46.40;;;;;;10383539;28;20241;-73
2022/11/12 22:33:43;;;;;;;6.87;6.37;;;10.00;46.50;;;;;;10379626;28;20222;-73
2022/11/12 22:38:49;;;;;;;14.73;6.60;;;10.00;46.40;;;;;;10376173;28;20226;-76
2022/11/12 22:43:53;;;;;;;48.73;6.77;;;9.90;47.00;;;;;;10384412;28;20230;-71
2022/11/12 22:48:57;;;;;;;11.90;6.30;;;9.90;47.00;;;;;;10376888;28;20229;-72
2022/11/12 22:54:05;;;;;;;9.87;6.50;;;9.70;47.10;;;;;;10380087;28;20756;-71
2022/11/12 22:59:12;;;;;;;6.80;5.83;;;9.60;47.50;;;;;;10378407;28;20225;-71
2022/11/12 23:04:15;;;;;;;20.97;6.03;;;9.60;47.70;;;;;;10373364;28;20240;-71
2022/11/12 23:09:20;;;;;;;9.70;5.50;;;9.60;47.70;;;;;;10386896;28;20253;-71
2022/11/12 23:14:23;;;;;;;13.63;4.93;;;9.60;47.70;;;;;;10386133;28;20234;-71
2022/11/12 23:19:27;;;;;;;16.27;5.73;;;9.60;47.60;;;;;;10385419;28;20250;-71
2022/11/12 23:24:31;;;;;;;16.83;4.90;;;9.60;47.50;;;;;;10382686;28;20241;-71
2022/11/12 23:29:34;;;;;;;11.23;4.97;;;9.60;47.50;;;;;;10380612;28;20843;-71
2022/11/12 23:34:37;;;;;;;4.57;4.27;;;9.50;47.50;;;;;;10385597;28;20233;-71
2022/11/12 23:39:42;;;;;;;16.20;5.50;;;9.50;47.60;;;;;;10385280;28;20218;-71
2022/11/12 23:44:45;;;;;;;15.63;5.73;;;9.50;47.60;;;;;;10381454;28;20702;-71
2022/11/12 23:49:48;;;;;;;17.03;4.77;;;9.50;47.50;;;;;;10387001;28;20226;-71
2022/11/12 23:54:53;;;;;;;14.37;5.73;;;9.40;47.40;;;;;;10384741;28;20226;-71
2022/11/12 23:59:56;;;;;;;5.83;5.30;;;9.40;47.40;;;;;;10382758;28;20226;-71
